sensor_id;sensor_type;location;lat;lon;timestamp;P1;durP1;ratioP1;P2;durP2;ratioP2
14472;SDS011;7322;50.872;4.386;2024-03-23T00:54:30;4.60;;;2.83;;
14472;SDS011;7322;50.872;4.386;2024-03-23T00:56:57;4.70;;;2.90;;
14472;SDS011;7322;50.872;4.386;2024-03-23T00:59:23;4.23;;;2.50;;
14472;SDS011;7322;50.872;4.386;2024-03-23T01:01:53;3.17;;;2.47;;
14472;SDS011;7322;50.872;4.386;2024-03-23T01:04:19;4.50;;;2.40;;
14472;SDS011;7322;50.872;4.386;2024-03-23T01:06:46;5.27;;;2.77;;
14472;SDS011;7322;50.872;4.386;2024-03-23T01:09:12;4.17;;;2.43;;
14472;SDS011;7322;50.872;4.386;2024-03-23T01:11:41;4.83;;;2.40;;
14472;SDS011;7322;50.872;4.386;2024-03-23T01:14:08;3.70;;;2.50;;
14472;SDS011;7322;50.872;4.386;2024-03-23T01:16:34;5.37;;;2.77;;
14472;SDS011;7322;50.872;4.386;2024-03-23T01:19:01;4.13;;;2.30;;
14472;SDS011;7322;50.872;4.386;2024-03-23T01:21:27;3.20;;;2.50;;
14472;SDS011;7322;50.872;4.386;2024-03-23T01:23:54;4.13;;;2.50;;
14472;SDS011;7322;50.872;4.386;2024-03-23T01:26:20;6.23;;;2.57;;
14472;SDS011;7322;50.872;4.386;2024-03-23T01:28:48;3.47;;;2.27;;
14472;SDS011;7322;50.872;4.386;2024-03-23T01:31:14;4.03;;;2.40;;
14472;SDS011;7322;50.872;4.386;2024-03-23T01:33:42;3.37;;;2.13;;
14472;SDS011;7322;50.872;4.386;2024-03-23T01:36:08;4.23;;;2.17;;
14472;SDS011;7322;50.872;4.386;2024-03-23T01:38:35;3.23;;;2.17;;
14472;SDS011;7322;50.872;4.386;2024-03-23T01:41:01;2.70;;;2.00;;
14472;SDS011;7322;50.872;4.386;2024-03-23T01:43:28;5.23;;;2.80;;
14472;SDS011;7322;50.872;4.386;2024-03-23T01:45:56;2.93;;;2.07;;
14472;SDS011;7322;50.872;4.386;2024-03-23T01:48:23;3.03;;;1.73;;
14472;SDS011;7322;50.872;4.386;2024-03-23T01:50:49;4.40;;;2.27;;
14472;SDS011;7322;50.872;4.386;2024-03-23T01:53:16;3.03;;;2.30;;
14472;SDS011;7322;50.872;4.386;2024-03-23T01:55:45;3.37;;;2.00;;
14472;SDS011;7322;50.872;4.386;2024-03-23T01:58:12;3.17;;;2.10;;
14472;SDS011;7322;50.872;4.386;2024-03-23T02:00:38;4.07;;;2.43;;
14472;SDS011;7322;50.872;4.386;2024-03-23T02:05:51;3.93;;;2.27;;
14472;SDS011;7322;50.872;4.386;2024-03-23T02:08:19;4.50;;;2.37;;
14472;SDS011;7322;50.872;4.386;2024-03-23T02:10:47;3.40;;;2.17;;
14472;SDS011;7322;50.872;4.386;2024-03-23T02:13:14;4.00;;;2.13;;
14472;SDS011;7322;50.872;4.386;2024-03-23T02:15:41;4.87;;;1.90;;
14472;SDS011;7322;50.872;4.386;2024-03-23T02:18:08;3.23;;;2.20;;
14472;SDS011;7322;50.872;4.386;2024-03-23T02:20:35;3.63;;;2.33;;
14472;SDS011;7322;50.872;4.386;2024-03-23T02:23:05;4.43;;;2.13;;
14472;SDS011;7322;50.872;4.386;2024-03-23T02:25:31;3.33;;;1.90;;
14472;SDS011;7322;50.872;4.386;2024-03-23T02:27:58;3.13;;;1.80;;
14472;SDS011;7322;50.872;4.386;2024-03-23T02:30:25;2.97;;;1.90;;
14472;SDS011;7322;50.872;4.386;2024-03-23T02:32:52;2.93;;;1.83;;
14472;SDS011;7322;50.872;4.386;2024-03-23T02:35:17;3.13;;;1.80;;
14472;SDS011;7322;50.872;4.386;2024-03-23T02:37:45;3.37;;;1.90;;
14472;SDS011;7322;50.872;4.386;2024-03-23T02:40:13;3.53;;;2.07;;
14472;SDS011;7322;50.872;4.386;2024-03-23T02:42:40;2.93;;;1.90;;
14472;SDS011;7322;50.872;4.386;2024-03-23T02:45:07;4.33;;;2.30;;
14472;SDS011;7322;50.872;4.386;2024-03-23T02:47:34;4.13;;;1.83;;
14472;SDS011;7322;50.872;4.386;2024-03-23T02:50:01;3.03;;;1.87;;
14472;SDS011;7322;50.872;4.386;2024-03-23T02:52:29;3.37;;;2.20;;
14472;SDS011;7322;50.872;4.386;2024-03-23T02:54:55;4.20;;;2.30;;
14472;SDS011;7322;50.872;4.386;2024-03-23T02:57:23;2.90;;;1.90;;
14472;SDS011;7322;50.872;4.386;2024-03-23T02:59:49;4.33;;;2.00;;
14472;SDS011;7322;50.872;4.386;2024-03-23T03:02:16;3.50;;;1.87;;
14472;SDS011;7322;50.872;4.386;2024-03-23T03:04:42;3.87;;;2.00;;
14472;SDS011;7322;50.872;4.386;2024-03-23T03:07:09;3.23;;;2.20;;
14472;SDS011;7322;50.872;4.386;2024-03-23T03:09:35;4.27;;;2.13;;
14472;SDS011;7322;50.872;4.386;2024-03-23T03:12:04;2.67;;;1.70;;
14472;SDS011;7322;50.872;4.386;2024-03-23T03:14:31;3.10;;;2.00;;
14472;SDS011;7322;50.872;4.386;2024-03-23T03:16:58;3.47;;;1.90;;
14472;SDS011;7322;50.872;4.386;2024-03-23T03:19:24;4.57;;;2.40;;
14472;SDS011;7322;50.872;4.386;2024-03-23T03:21:52;4.93;;;2.10;;
14472;SDS011;7322;50.872;4.386;2024-03-23T03:24:18;3.40;;;1.97;;
14472;SDS011;7322;50.872;4.386;2024-03-23T03:26:45;3.57;;;1.90;;
14472;SDS011;7322;50.872;4.386;2024-03-23T03:29:11;3.30;;;2.00;;
14472;SDS011;7322;50.872;4.386;2024-03-23T03:31:39;4.20;;;2.00;;
14472;SDS011;7322;50.872;4.386;2024-03-23T03:34:07;3.10;;;2.10;;
14472;SDS011;7322;50.872;4.386;2024-03-23T03:36:34;3.20;;;1.90;;
14472;SDS011;7322;50.872;4.386;2024-03-23T03:39:00;3.50;;;1.77;;
14472;SDS011;7322;50.872;4.386;2024-03-23T03:41:28;4.93;;;1.83;;
14472;SDS011;7322;50.872;4.386;2024-03-23T03:43:55;2.97;;;2.30;;
14472;SDS011;7322;50.872;4.386;2024-03-23T03:46:26;3.60;;;1.93;;
14472;SDS011;7322;50.872;4.386;2024-03-23T03:48:56;4.00;;;2.00;;
14472;SDS011;7322;50.872;4.386;2024-03-23T03:51:21;3.97;;;1.93;;
14472;SDS011;7322;50.872;4.386;2024-03-23T03:53:48;3.60;;;1.90;;
14472;SDS011;7322;50.872;4.386;2024-03-23T03:56:14;3.10;;;1.93;;
14472;SDS011;7322;50.872;4.386;2024-03-23T03:58:41;3.37;;;2.00;;
14472;SDS011;7322;50.872;4.386;2024-03-23T04:01:07;4.30;;;2.03;;
14472;SDS011;7322;50.872;4.386;2024-03-23T04:03:34;4.50;;;2.03;;
14472;SDS011;7322;50.872;4.386;2024-03-23T04:06:02;4.23;;;2.00;;
14472;SDS011;7322;50.872;4.386;2024-03-23T04:08:29;4.07;;;2.13;;
14472;SDS011;7322;50.872;4.386;2024-03-23T04:10:56;4.93;;;2.20;;
14472;SDS011;7322;50.872;4.386;2024-03-23T04:13:23;3.93;;;2.27;;
14472;SDS011;7322;50.872;4.386;2024-03-23T04:15:49;4.70;;;2.10;;
14472;SDS011;7322;50.872;4.386;2024-03-23T04:18:19;4.17;;;2.30;;
14472;SDS011;7322;50.872;4.386;2024-03-23T04:20:46;4.30;;;2.10;;
14472;SDS011;7322;50.872;4.386;2024-03-23T04:23:14;3.23;;;2.17;;
14472;SDS011;7322;50.872;4.386;2024-03-23T04:25:40;2.80;;;1.90;;
14472;SDS011;7322;50.872;4.386;2024-03-23T04:28:07;3.50;;;1.80;;
14472;SDS011;7322;50.872;4.386;2024-03-23T04:30:33;4.17;;;2.10;;
14472;SDS011;7322;50.872;4.386;2024-03-23T04:33:02;3.87;;;2.00;;
14472;SDS011;7322;50.872;4.386;2024-03-23T04:35:28;2.80;;;1.83;;
14472;SDS011;7322;50.872;4.386;2024-03-23T04:37:55;3.13;;;1.97;;
14472;SDS011;7322;50.872;4.386;2024-03-23T04:40:25;4.43;;;2.10;;
14472;SDS011;7322;50.872;4.386;2024-03-23T04:42:52;3.00;;;2.07;;
14472;SDS011;7322;50.872;4.386;2024-03-23T04:45:19;3.90;;;2.00;;
14472;SDS011;7322;50.872;4.386;2024-03-23T04:47:46;3.93;;;1.90;;
14472;SDS011;7322;50.872;4.386;2024-03-23T04:50:12;4.13;;;2.10;;
14472;SDS011;7322;50.872;4.386;2024-03-23T04:52:39;3.13;;;2.03;;
14472;SDS011;7322;50.872;4.386;2024-03-23T04:55:06;3.53;;;2.10;;
14472;SDS011;7322;50.872;4.386;2024-03-23T04:57:37;5.23;;;2.20;;
14472;SDS011;7322;50.872;4.386;2024-03-23T05:00:04;5.33;;;2.27;;
14472;SDS011;7322;50.872;4.386;2024-03-23T05:02:41;4.13;;;2.00;;
14472;SDS011;7322;50.872;4.386;2024-03-23T05:05:09;4.63;;;1.90;;
14472;SDS011;7322;50.872;4.386;2024-03-23T05:07:35;3.03;;;1.83;;
14472;SDS011;7322;50.872;4.386;2024-03-23T05:10:02;3.27;;;1.83;;
14472;SDS011;7322;50.872;4.386;2024-03-23T05:12:29;3.77;;;1.97;;
14472;SDS011;7322;50.872;4.386;2024-03-23T05:14:58;3.97;;;2.10;;
14472;SDS011;7322;50.872;4.386;2024-03-23T05:17:24;4.50;;;2.10;;
14472;SDS011;7322;50.872;4.386;2024-03-23T05:19:51;3.27;;;1.53;;
14472;SDS011;7322;50.872;4.386;2024-03-23T05:22:18;6.27;;;2.20;;
14472;SDS011;7322;50.872;4.386;2024-03-23T05:24:45;3.50;;;1.90;;
14472;SDS011;7322;50.872;4.386;2024-03-23T05:29:42;4.23;;;1.87;;
14472;SDS011;7322;50.872;4.386;2024-03-23T05:32:09;3.03;;;1.80;;
14472;SDS011;7322;50.872;4.386;2024-03-23T05:34:36;3.73;;;2.20;;
14472;SDS011;7322;50.872;4.386;2024-03-23T05:37:02;3.87;;;2.13;;
14472;SDS011;7322;50.872;4.386;2024-03-23T05:39:29;4.07;;;1.93;;
14472;SDS011;7322;50.872;4.386;2024-03-23T05:41:55;3.20;;;1.77;;
14472;SDS011;7322;50.872;4.386;2024-03-23T05:44:22;4.27;;;1.87;;
14472;SDS011;7322;50.872;4.386;2024-03-23T05:46:48;3.60;;;2.00;;
14472;SDS011;7322;50.872;4.386;2024-03-23T05:49:17;4.00;;;1.80;;
14472;SDS011;7322;50.872;4.386;2024-03-23T05:51:43;4.13;;;2.07;;
14472;SDS011;7322;50.872;4.386;2024-03-23T05:54:10;3.57;;;1.70;;
14472;SDS011;7322;50.872;4.386;2024-03-23T05:56:35;3.50;;;1.93;;
14472;SDS011;7322;50.872;4.386;2024-03-23T05:59:02;3.83;;;2.20;;
14472;SDS011;7322;50.872;4.386;2024-03-23T06:01:28;4.33;;;1.90;;
14472;SDS011;7322;50.872;4.386;2024-03-23T06:03:59;4.37;;;2.17;;
14472;SDS011;7322;50.872;4.386;2024-03-23T06:06:29;4.27;;;2.00;;
14472;SDS011;7322;50.872;4.386;2024-03-23T06:11:37;3.43;;;1.90;;
14472;SDS011;7322;50.872;4.386;2024-03-23T06:14:04;4.23;;;2.03;;
14472;SDS011;7322;50.872;4.386;2024-03-23T06:16:32;6.40;;;2.20;;
14472;SDS011;7322;50.872;4.386;2024-03-23T06:18:59;2.80;;;1.77;;
14472;SDS011;7322;50.872;4.386;2024-03-23T06:21:33;4.63;;;2.17;;
14472;SDS011;7322;50.872;4.386;2024-03-23T06:26:33;5.80;;;2.03;;
14472;SDS011;7322;50.872;4.386;2024-03-23T06:29:01;3.97;;;1.90;;
14472;SDS011;7322;50.872;4.386;2024-03-23T06:31:28;4.50;;;1.80;;
14472;SDS011;7322;50.872;4.386;2024-03-23T06:33:56;3.60;;;1.80;;
14472;SDS011;7322;50.872;4.386;2024-03-23T06:39:16;3.63;;;1.90;;
14472;SDS011;7322;50.872;4.386;2024-03-23T06:41:50;6.30;;;2.23;;
14472;SDS011;7322;50.872;4.386;2024-03-23T06:44:19;4.77;;;2.00;;
14472;SDS011;7322;50.872;4.386;2024-03-23T06:46:47;5.47;;;2.07;;
14472;SDS011;7322;50.872;4.386;2024-03-23T06:52:01;4.17;;;1.90;;
14472;SDS011;7322;50.872;4.386;2024-03-23T06:54:35;5.30;;;2.10;;
14472;SDS011;7322;50.872;4.386;2024-03-23T06:57:04;4.63;;;2.10;;
14472;SDS011;7322;50.872;4.386;2024-03-23T06:59:30;5.37;;;1.97;;
14472;SDS011;7322;50.872;4.386;2024-03-23T07:02:01;5.60;;;2.30;;
14472;SDS011;7322;50.872;4.386;2024-03-23T07:04:29;5.87;;;1.97;;
14472;SDS011;7322;50.872;4.386;2024-03-23T07:06:57;5.77;;;2.00;;
14472;SDS011;7322;50.872;4.386;2024-03-23T07:09:25;4.67;;;1.70;;
14472;SDS011;7322;50.872;4.386;2024-03-23T07:11:54;4.53;;;1.67;;
14472;SDS011;7322;50.872;4.386;2024-03-23T07:14:24;4.07;;;1.70;;
14472;SDS011;7322;50.872;4.386;2024-03-23T07:19:20;4.47;;;1.80;;
14472;SDS011;7322;50.872;4.386;2024-03-23T07:21:47;5.27;;;1.90;;
14472;SDS011;7322;50.872;4.386;2024-03-23T07:24:13;4.60;;;2.00;;
14472;SDS011;7322;50.872;4.386;2024-03-23T07:26:41;5.10;;;1.60;;
14472;SDS011;7322;50.872;4.386;2024-03-23T07:29:09;5.13;;;1.70;;
14472;SDS011;7322;50.872;4.386;2024-03-23T07:31:36;5.70;;;1.83;;
14472;SDS011;7322;50.872;4.386;2024-03-23T07:34:03;4.00;;;1.60;;
14472;SDS011;7322;50.872;4.386;2024-03-23T07:36:31;4.67;;;1.90;;
14472;SDS011;7322;50.872;4.386;2024-03-23T07:38:57;4.23;;;2.07;;
14472;SDS011;7322;50.872;4.386;2024-03-23T07:41:24;3.27;;;1.60;;
14472;SDS011;7322;50.872;4.386;2024-03-23T07:43:53;4.17;;;1.80;;
14472;SDS011;7322;50.872;4.386;2024-03-23T07:46:20;3.97;;;2.00;;
14472;SDS011;7322;50.872;4.386;2024-03-23T07:48:47;3.93;;;1.73;;
14472;SDS011;7322;50.872;4.386;2024-03-23T07:51:16;2.77;;;1.50;;
14472;SDS011;7322;50.872;4.386;2024-03-23T07:53:43;3.17;;;1.63;;
14472;SDS011;7322;50.872;4.386;2024-03-23T07:56:11;6.27;;;1.70;;
14472;SDS011;7322;50.872;4.386;2024-03-23T07:58:37;3.03;;;1.67;;
14472;SDS011;7322;50.872;4.386;2024-03-23T08:01:06;4.07;;;1.80;;
14472;SDS011;7322;50.872;4.386;2024-03-23T08:03:33;3.83;;;1.40;;
14472;SDS011;7322;50.872;4.386;2024-03-23T08:06:07;4.40;;;1.70;;
14472;SDS011;7322;50.872;4.386;2024-03-23T08:08:34;2.67;;;1.30;;
14472;SDS011;7322;50.872;4.386;2024-03-23T08:11:01;5.50;;;1.67;;
14472;SDS011;7322;50.872;4.386;2024-03-23T08:13:27;3.57;;;1.57;;
14472;SDS011;7322;50.872;4.386;2024-03-23T08:15:56;3.33;;;1.33;;
14472;SDS011;7322;50.872;4.386;2024-03-23T08:18:23;3.77;;;1.37;;
14472;SDS011;7322;50.872;4.386;2024-03-23T08:20:56;5.37;;;1.83;;
14472;SDS011;7322;50.872;4.386;2024-03-23T08:23:23;2.63;;;1.43;;
14472;SDS011;7322;50.872;4.386;2024-03-23T08:25:52;4.70;;;1.50;;
14472;SDS011;7322;50.872;4.386;2024-03-23T08:33:58;4.73;;;1.90;;
14472;SDS011;7322;50.872;4.386;2024-03-23T08:39:12;5.80;;;1.73;;
14472;SDS011;7322;50.872;4.386;2024-03-23T08:41:38;4.13;;;1.50;;
14472;SDS011;7322;50.872;4.386;2024-03-23T08:46:49;4.17;;;1.70;;
14472;SDS011;7322;50.872;4.386;2024-03-23T08:49:26;6.10;;;1.70;;
14472;SDS011;7322;50.872;4.386;2024-03-23T08:51:53;3.97;;;1.70;;
14472;SDS011;7322;50.872;4.386;2024-03-23T08:54:19;3.93;;;1.77;;
14472;SDS011;7322;50.872;4.386;2024-03-23T08:56:48;3.47;;;1.67;;
14472;SDS011;7322;50.872;4.386;2024-03-23T08:59:14;5.27;;;1.70;;
14472;SDS011;7322;50.872;4.386;2024-03-23T09:01:41;5.80;;;1.80;;
14472;SDS011;7322;50.872;4.386;2024-03-23T09:04:07;4.67;;;1.80;;
14472;SDS011;7322;50.872;4.386;2024-03-23T09:06:35;6.33;;;2.07;;
14472;SDS011;7322;50.872;4.386;2024-03-23T09:09:01;5.93;;;1.90;;
14472;SDS011;7322;50.872;4.386;2024-03-23T09:11:28;4.60;;;2.10;;
14472;SDS011;7322;50.872;4.386;2024-03-23T09:13:54;3.50;;;1.63;;
14472;SDS011;7322;50.872;4.386;2024-03-23T09:16:21;3.30;;;1.50;;
14472;SDS011;7322;50.872;4.386;2024-03-23T09:18:47;5.00;;;2.10;;
14472;SDS011;7322;50.872;4.386;2024-03-23T09:21:14;4.20;;;1.70;;
14472;SDS011;7322;50.872;4.386;2024-03-23T09:23:42;5.13;;;1.83;;
14472;SDS011;7322;50.872;4.386;2024-03-23T09:26:09;5.17;;;1.80;;
14472;SDS011;7322;50.872;4.386;2024-03-23T09:28:35;5.17;;;1.70;;
14472;SDS011;7322;50.872;4.386;2024-03-23T09:31:03;4.20;;;1.33;;
14472;SDS011;7322;50.872;4.386;2024-03-23T09:33:29;6.60;;;2.13;;
14472;SDS011;7322;50.872;4.386;2024-03-23T09:35:56;5.37;;;1.80;;
14472;SDS011;7322;50.872;4.386;2024-03-23T09:38:22;5.83;;;1.63;;
14472;SDS011;7322;50.872;4.386;2024-03-23T09:40:52;4.23;;;1.60;;
14472;SDS011;7322;50.872;4.386;2024-03-23T09:45:52;5.63;;;1.63;;
14472;SDS011;7322;50.872;4.386;2024-03-23T09:48:18;5.40;;;1.83;;
14472;SDS011;7322;50.872;4.386;2024-03-23T09:50:45;4.57;;;1.73;;
14472;SDS011;7322;50.872;4.386;2024-03-23T09:53:12;5.33;;;1.90;;
14472;SDS011;7322;50.872;4.386;2024-03-23T09:55:39;5.90;;;1.93;;
14472;SDS011;7322;50.872;4.386;2024-03-23T09:58:07;4.67;;;1.63;;
14472;SDS011;7322;50.872;4.386;2024-03-23T10:00:38;5.10;;;2.20;;
14472;SDS011;7322;50.872;4.386;2024-03-23T10:03:04;4.33;;;1.80;;
14472;SDS011;7322;50.872;4.386;2024-03-23T10:05:31;4.50;;;1.93;;
14472;SDS011;7322;50.872;4.386;2024-03-23T10:07:59;6.20;;;1.90;;
14472;SDS011;7322;50.872;4.386;2024-03-23T10:10:26;5.83;;;1.93;;
14472;SDS011;7322;50.872;4.386;2024-03-23T10:12:52;4.10;;;1.57;;
14472;SDS011;7322;50.872;4.386;2024-03-23T10:15:21;5.57;;;2.00;;
14472;SDS011;7322;50.872;4.386;2024-03-23T10:17:48;4.27;;;1.70;;
14472;SDS011;7322;50.872;4.386;2024-03-23T10:20:18;4.47;;;1.80;;
14472;SDS011;7322;50.872;4.386;2024-03-23T10:22:45;3.90;;;1.60;;
14472;SDS011;7322;50.872;4.386;2024-03-23T10:25:14;4.47;;;1.77;;
14472;SDS011;7322;50.872;4.386;2024-03-23T10:27:40;4.93;;;2.00;;
14472;SDS011;7322;50.872;4.386;2024-03-23T10:30:08;5.37;;;1.87;;
14472;SDS011;7322;50.872;4.386;2024-03-23T10:32:41;6.33;;;2.07;;
14472;SDS011;7322;50.872;4.386;2024-03-23T10:35:14;6.27;;;1.87;;
14472;SDS011;7322;50.872;4.386;2024-03-23T10:37:41;4.73;;;1.93;;
14472;SDS011;7322;50.872;4.386;2024-03-23T10:40:09;4.53;;;1.80;;
14472;SDS011;7322;50.872;4.386;2024-03-23T10:42:38;4.27;;;1.87;;
14472;SDS011;7322;50.872;4.386;2024-03-23T10:45:07;4.07;;;1.97;;
14472;SDS011;7322;50.872;4.386;2024-03-23T10:47:34;5.10;;;1.93;;
14472;SDS011;7322;50.872;4.386;2024-03-23T10:50:09;4.53;;;1.70;;
14472;SDS011;7322;50.872;4.386;2024-03-23T10:52:47;4.20;;;1.60;;
14472;SDS011;7322;50.872;4.386;2024-03-23T10:55:15;4.13;;;1.80;;
14472;SDS011;7322;50.872;4.386;2024-03-23T10:57:52;3.17;;;1.70;;
14472;SDS011;7322;50.872;4.386;2024-03-23T11:00:22;5.43;;;1.83;;
14472;SDS011;7322;50.872;4.386;2024-03-23T11:02:49;4.13;;;1.77;;
14472;SDS011;7322;50.872;4.386;2024-03-23T11:05:29;3.63;;;1.70;;
14472;SDS011;7322;50.872;4.386;2024-03-23T11:07:56;4.70;;;1.50;;
14472;SDS011;7322;50.872;4.386;2024-03-23T11:10:26;4.37;;;1.63;;
14472;SDS011;7322;50.872;4.386;2024-03-23T11:12:55;5.17;;;1.70;;
14472;SDS011;7322;50.872;4.386;2024-03-23T11:15:24;4.60;;;1.60;;
14472;SDS011;7322;50.872;4.386;2024-03-23T11:20:39;4.57;;;1.80;;
14472;SDS011;7322;50.872;4.386;2024-03-23T11:23:05;3.57;;;1.73;;
14472;SDS011;7322;50.872;4.386;2024-03-23T11:25:34;8.30;;;1.77;;
14472;SDS011;7322;50.872;4.386;2024-03-23T11:28:09;5.07;;;1.70;;
14472;SDS011;7322;50.872;4.386;2024-03-23T11:30:38;4.30;;;1.77;;
14472;SDS011;7322;50.872;4.386;2024-03-23T11:33:05;4.57;;;1.67;;
14472;SDS011;7322;50.872;4.386;2024-03-23T11:35:33;4.33;;;1.40;;
14472;SDS011;7322;50.872;4.386;2024-03-23T11:38:04;4.03;;;1.70;;
14472;SDS011;7322;50.872;4.386;2024-03-23T11:40:33;3.47;;;1.40;;
14472;SDS011;7322;50.872;4.386;2024-03-23T11:43:01;3.87;;;1.33;;
14472;SDS011;7322;50.872;4.386;2024-03-23T11:45:33;3.10;;;1.43;;
14472;SDS011;7322;50.872;4.386;2024-03-23T11:48:06;3.40;;;1.43;;
14472;SDS011;7322;50.872;4.386;2024-03-23T11:50:37;4.10;;;1.50;;
14472;SDS011;7322;50.872;4.386;2024-03-23T11:53:12;3.77;;;1.20;;
14472;SDS011;7322;50.872;4.386;2024-03-23T11:55:43;5.63;;;1.90;;
14472;SDS011;7322;50.872;4.386;2024-03-23T11:58:13;2.90;;;1.43;;
14472;SDS011;7322;50.872;4.386;2024-03-23T12:00:41;2.67;;;1.27;;
14472;SDS011;7322;50.872;4.386;2024-03-23T12:03:08;3.53;;;1.50;;
14472;SDS011;7322;50.872;4.386;2024-03-23T12:05:36;4.60;;;1.40;;
14472;SDS011;7322;50.872;4.386;2024-03-23T12:08:17;3.20;;;1.50;;
14472;SDS011;7322;50.872;4.386;2024-03-23T12:10:47;4.63;;;1.67;;
14472;SDS011;7322;50.872;4.386;2024-03-23T12:13:14;3.07;;;1.50;;
14472;SDS011;7322;50.872;4.386;2024-03-23T12:15:43;2.90;;;1.30;;
14472;SDS011;7322;50.872;4.386;2024-03-23T12:18:11;2.77;;;1.30;;
14472;SDS011;7322;50.872;4.386;2024-03-23T12:20:38;4.27;;;1.50;;
14472;SDS011;7322;50.872;4.386;2024-03-23T12:23:05;4.13;;;1.50;;
14472;SDS011;7322;50.872;4.386;2024-03-23T12:25:38;4.00;;;1.57;;
14472;SDS011;7322;50.872;4.386;2024-03-23T12:28:04;2.17;;;1.23;;
14472;SDS011;7322;50.872;4.386;2024-03-23T12:30:35;3.60;;;1.40;;
14472;SDS011;7322;50.872;4.386;2024-03-23T12:33:04;3.90;;;1.37;;
14472;SDS011;7322;50.872;4.386;2024-03-23T12:35:31;3.73;;;1.30;;
14472;SDS011;7322;50.872;4.386;2024-03-23T12:37:58;2.67;;;1.40;;
14472;SDS011;7322;50.872;4.386;2024-03-23T12:40:26;4.73;;;1.40;;
14472;SDS011;7322;50.872;4.386;2024-03-23T12:42:54;4.03;;;1.47;;
14472;SDS011;7322;50.872;4.386;2024-03-23T12:45:21;3.30;;;1.50;;
14472;SDS011;7322;50.872;4.386;2024-03-23T12:47:47;3.03;;;1.47;;
14472;SDS011;7322;50.872;4.386;2024-03-23T12:50:15;3.30;;;1.20;;
14472;SDS011;7322;50.872;4.386;2024-03-23T12:52:42;5.20;;;1.70;;
14472;SDS011;7322;50.872;4.386;2024-03-23T12:55:09;3.70;;;1.43;;
14472;SDS011;7322;50.872;4.386;2024-03-23T12:57:35;4.83;;;1.60;;
14472;SDS011;7322;50.872;4.386;2024-03-23T13:00:04;5.53;;;1.60;;
14472;SDS011;7322;50.872;4.386;2024-03-23T13:02:31;4.20;;;1.23;;
14472;SDS011;7322;50.872;4.386;2024-03-23T13:05:00;3.90;;;1.43;;
14472;SDS011;7322;50.872;4.386;2024-03-23T13:07:26;6.40;;;1.97;;
14472;SDS011;7322;50.872;4.386;2024-03-23T13:09:53;4.13;;;1.30;;
14472;SDS011;7322;50.872;4.386;2024-03-23T13:12:19;3.73;;;1.37;;
14472;SDS011;7322;50.872;4.386;2024-03-23T13:14:46;4.73;;;1.43;;
14472;SDS011;7322;50.872;4.386;2024-03-23T13:17:14;3.80;;;1.20;;
14472;SDS011;7322;50.872;4.386;2024-03-23T13:19:41;5.87;;;1.70;;
14472;SDS011;7322;50.872;4.386;2024-03-23T13:22:07;7.03;;;1.20;;
14472;SDS011;7322;50.872;4.386;2024-03-23T13:24:36;4.57;;;1.23;;
14472;SDS011;7322;50.872;4.386;2024-03-23T13:27:03;6.60;;;1.43;;
14472;SDS011;7322;50.872;4.386;2024-03-23T13:29:33;5.23;;;1.50;;
14472;SDS011;7322;50.872;4.386;2024-03-23T13:31:59;4.37;;;1.10;;
14472;SDS011;7322;50.872;4.386;2024-03-23T13:34:28;4.83;;;1.33;;
14472;SDS011;7322;50.872;4.386;2024-03-23T13:36:54;4.83;;;1.20;;
14472;SDS011;7322;50.872;4.386;2024-03-23T13:39:24;3.23;;;1.30;;
14472;SDS011;7322;50.872;4.386;2024-03-23T13:41:50;4.03;;;1.23;;
14472;SDS011;7322;50.872;4.386;2024-03-23T13:44:17;5.13;;;1.30;;
14472;SDS011;7322;50.872;4.386;2024-03-23T13:46:43;3.73;;;1.50;;
14472;SDS011;7322;50.872;4.386;2024-03-23T13:49:16;5.87;;;1.47;;
14472;SDS011;7322;50.872;4.386;2024-03-23T13:51:51;3.37;;;1.50;;
14472;SDS011;7322;50.872;4.386;2024-03-23T13:54:18;7.83;;;1.47;;
14472;SDS011;7322;50.872;4.386;2024-03-23T13:56:45;5.07;;;1.40;;
14472;SDS011;7322;50.872;4.386;2024-03-23T13:59:13;6.43;;;1.50;;
14472;SDS011;7322;50.872;4.386;2024-03-23T14:01:39;4.03;;;1.27;;
14472;SDS011;7322;50.872;4.386;2024-03-23T14:04:07;6.67;;;1.23;;
14472;SDS011;7322;50.872;4.386;2024-03-23T14:06:33;3.27;;;1.33;;
14472;SDS011;7322;50.872;4.386;2024-03-23T14:09:01;5.93;;;1.30;;
14472;SDS011;7322;50.872;4.386;2024-03-23T14:11:28;4.40;;;1.10;;
14472;SDS011;7322;50.872;4.386;2024-03-23T14:13:56;3.87;;;1.40;;
14472;SDS011;7322;50.872;4.386;2024-03-23T14:16:22;2.60;;;1.13;;
14472;SDS011;7322;50.872;4.386;2024-03-23T14:18:49;5.87;;;1.30;;
14472;SDS011;7322;50.872;4.386;2024-03-23T14:21:17;4.90;;;1.30;;
14472;SDS011;7322;50.872;4.386;2024-03-23T14:23:44;5.07;;;1.60;;
14472;SDS011;7322;50.872;4.386;2024-03-23T14:26:11;6.63;;;1.30;;
14472;SDS011;7322;50.872;4.386;2024-03-23T14:28:39;5.03;;;1.43;;
14472;SDS011;7322;50.872;4.386;2024-03-23T14:31:05;3.50;;;1.10;;
14472;SDS011;7322;50.872;4.386;2024-03-23T14:33:43;4.47;;;1.20;;
14472;SDS011;7322;50.872;4.386;2024-03-23T14:36:11;6.47;;;1.47;;
14472;SDS011;7322;50.872;4.386;2024-03-23T14:38:38;4.57;;;1.37;;
14472;SDS011;7322;50.872;4.386;2024-03-23T14:41:12;4.33;;;1.40;;
14472;SDS011;7322;50.872;4.386;2024-03-23T14:43:40;3.87;;;1.70;;
14472;SDS011;7322;50.872;4.386;2024-03-23T14:46:09;4.17;;;1.40;;
14472;SDS011;7322;50.872;4.386;2024-03-23T14:48:38;3.70;;;1.53;;
14472;SDS011;7322;50.872;4.386;2024-03-23T14:51:05;7.17;;;1.60;;
14472;SDS011;7322;50.872;4.386;2024-03-23T14:53:33;3.17;;;1.50;;
14472;SDS011;7322;50.872;4.386;2024-03-23T14:56:01;2.77;;;1.30;;
14472;SDS011;7322;50.872;4.386;2024-03-23T14:58:31;4.63;;;1.33;;
14472;SDS011;7322;50.872;4.386;2024-03-23T15:01:07;4.53;;;1.50;;
14472;SDS011;7322;50.872;4.386;2024-03-23T15:03:35;8.50;;;1.80;;
14472;SDS011;7322;50.872;4.386;2024-03-23T15:06:06;7.00;;;1.50;;
14472;SDS011;7322;50.872;4.386;2024-03-23T15:08:47;3.83;;;1.40;;
14472;SDS011;7322;50.872;4.386;2024-03-23T15:11:14;4.37;;;1.60;;
14472;SDS011;7322;50.872;4.386;2024-03-23T15:13:49;5.27;;;1.57;;
14472;SDS011;7322;50.872;4.386;2024-03-23T15:18:48;5.23;;;1.30;;
14472;SDS011;7322;50.872;4.386;2024-03-23T15:21:14;4.93;;;1.70;;
14472;SDS011;7322;50.872;4.386;2024-03-23T15:23:46;7.83;;;1.63;;
14472;SDS011;7322;50.872;4.386;2024-03-23T15:26:12;3.90;;;1.47;;
14472;SDS011;7322;50.872;4.386;2024-03-23T15:28:40;3.50;;;1.30;;
14472;SDS011;7322;50.872;4.386;2024-03-23T15:31:12;5.63;;;1.50;;
14472;SDS011;7322;50.872;4.386;2024-03-23T15:33:45;4.23;;;1.73;;
14472;SDS011;7322;50.872;4.386;2024-03-23T15:36:11;5.20;;;1.70;;
14472;SDS011;7322;50.872;4.386;2024-03-23T15:38:39;3.80;;;1.50;;
14472;SDS011;7322;50.872;4.386;2024-03-23T15:41:07;2.83;;;1.27;;
14472;SDS011;7322;50.872;4.386;2024-03-23T15:43:36;2.53;;;1.17;;
14472;SDS011;7322;50.872;4.386;2024-03-23T15:46:04;4.33;;;1.50;;
14472;SDS011;7322;50.872;4.386;2024-03-23T15:48:35;3.03;;;1.33;;
14472;SDS011;7322;50.872;4.386;2024-03-23T15:51:03;3.70;;;1.50;;
14472;SDS011;7322;50.872;4.386;2024-03-23T15:53:30;3.13;;;1.57;;
14472;SDS011;7322;50.872;4.386;2024-03-23T15:55:57;5.27;;;1.80;;
14472;SDS011;7322;50.872;4.386;2024-03-23T15:58:25;3.90;;;1.40;;
14472;SDS011;7322;50.872;4.386;2024-03-23T16:00:54;4.17;;;1.47;;
14472;SDS011;7322;50.872;4.386;2024-03-23T16:03:21;3.20;;;1.40;;
14472;SDS011;7322;50.872;4.386;2024-03-23T16:05:51;3.80;;;1.60;;
14472;SDS011;7322;50.872;4.386;2024-03-23T16:08:19;4.93;;;1.67;;
14472;SDS011;7322;50.872;4.386;2024-03-23T16:10:45;3.80;;;1.40;;
14472;SDS011;7322;50.872;4.386;2024-03-23T16:13:12;2.93;;;1.23;;
14472;SDS011;7322;50.872;4.386;2024-03-23T16:15:38;2.97;;;1.47;;
14472;SDS011;7322;50.872;4.386;2024-03-23T16:18:05;3.30;;;1.47;;
14472;SDS011;7322;50.872;4.386;2024-03-23T16:20:32;4.30;;;1.60;;
14472;SDS011;7322;50.872;4.386;2024-03-23T16:23:02;4.90;;;2.10;;
14472;SDS011;7322;50.872;4.386;2024-03-23T16:25:31;6.03;;;2.10;;
14472;SDS011;7322;50.872;4.386;2024-03-23T16:28:01;4.37;;;2.33;;
14472;SDS011;7322;50.872;4.386;2024-03-23T16:30:28;7.80;;;2.53;;
14472;SDS011;7322;50.872;4.386;2024-03-23T16:32:54;5.23;;;2.60;;
14472;SDS011;7322;50.872;4.386;2024-03-23T16:35:26;5.70;;;2.80;;